Time;durP1;ratioP1;P1;durP2;ratioP2;P2;SDS_P1;SDS_P2;PMS_P1;PMS_P2;Temp;Humidity;BMP_temperature;BMP_pressure;BME280_temperature;BME280_humidity;BME280_pressure;Samples;Min_cycle;Max_cycle;Signal;HPM_P1;HPM_P2
2022/09/02 00:00:40;;;;;;;3.05;1.85;;;;;;;18.10;46.14;101560.72;6210568;23;20000;-93
2022/09/02 00:03:05;;;;;;;2.95;1.75;;;;;;;18.12;45.53;101567.78;6183430;23;20001;-93
2022/09/02 00:05:31;;;;;;;2.90;1.80;;;;;;;18.06;45.71;101563.66;6209672;23;20182;-93
2022/09/02 00:07:56;;;;;;;2.95;1.65;;;;;;;18.04;45.83;101546.81;6182683;23;20088;-93
2022/09/02 00:10:21;;;;;;;2.47;1.50;;;;;;;18.14;45.24;101566.75;6157501;23;20020;-93
2022/09/02 00:12:47;;;;;;;3.08;2.00;;;;;;;18.02;45.70;101552.28;6183205;23;20214;-93
2022/09/02 00:15:12;;;;;;;2.95;2.00;;;;;;;17.93;46.42;101544.81;6183085;23;20147;-94
2022/09/02 00:17:37;;;;;;;4.20;1.70;;;;;;;17.90;46.10;101546.78;6183245;23;20005;-95
2022/09/02 00:20:03;;;;;;;2.35;1.80;;;;;;;17.92;46.11;101552.94;6183333;23;20889;-94
2022/09/02 00:22:28;;;;;;;2.90;1.80;;;;;;;17.69;46.61;101547.09;6210767;23;20027;-93
2022/09/02 00:24:54;;;;;;;3.05;2.00;;;;;;;17.69;46.80;101547.09;6181523;23;20420;-93
2022/09/02 00:27:19;;;;;;;4.45;1.83;;;;;;;17.75;46.19;101540.53;6184118;23;20042;-93
2022/09/02 00:29:45;;;;;;;2.90;1.92;;;;;;;17.65;46.70;101536.66;6209835;23;20008;-93
2022/09/02 00:32:10;;;;;;;3.25;2.10;;;;;;;17.60;47.47;101545.81;6183155;23;20044;-94
2022/09/02 00:34:35;;;;;;;2.42;1.75;;;;;;;17.49;46.78;101531.34;6183239;23;20007;-93
2022/09/02 00:37:00;;;;;;;3.83;1.90;;;;;;;17.49;47.59;101534.03;6181940;23;20019;-93
2022/09/02 00:39:26;;;;;;;3.95;1.80;;;;;;;17.56;46.61;101532.72;6183484;23;20011;-93
2022/09/02 00:41:51;;;;;;;2.80;1.83;;;;;;;17.53;46.85;101538.22;6182776;23;20005;-93
2022/09/02 00:44:18;;;;;;;4.78;1.98;;;;;;;17.48;47.70;101545.66;6183244;23;20011;-93
2022/09/02 00:46:45;;;;;;;1.95;1.85;;;;;;;17.52;47.29;101532.00;6181630;23;20433;-93
2022/09/02 00:49:23;;;;;;;3.08;2.10;;;;;;;17.52;47.24;101537.38;6183230;23;20019;-94
2022/09/02 00:51:57;;;;;;;2.40;1.67;;;;;;;17.43;47.11;101531.69;6184122;23;20027;-93
2022/09/02 00:54:25;;;;;;;2.13;1.85;;;;;;;17.22;48.50;101517.75;6184144;23;20442;-93
2022/09/02 00:56:52;;;;;;;3.13;1.90;;;;;;;17.34;47.27;101530.41;6184885;23;20395;-94
2022/09/02 00:59:25;;;;;;;2.17;1.98;;;;;;;17.38;47.49;101534.63;6183442;23;20004;-94
2022/09/02 01:01:50;;;;;;;3.00;2.00;;;;;;;17.26;47.62;101514.81;6184443;23;20428;-93
2022/09/02 01:04:16;;;;;;;3.33;1.88;;;;;;;17.28;47.46;101526.28;6184127;23;20011;-93
2022/09/02 01:06:41;;;;;;;4.25;1.90;;;;;;;17.16;47.95;101521.66;6183558;23;20009;-93
2022/09/02 01:09:13;;;;;;;2.85;2.10;;;;;;;17.09;48.16;101518.44;6183028;23;20000;-93
2022/09/02 01:11:46;;;;;;;3.20;1.80;;;;;;;16.96;48.59;101506.72;6157905;23;20004;-94
2022/09/02 01:14:13;;;;;;;2.28;1.80;;;;;;;16.98;49.18;101520.88;6184449;23;20356;-94
2022/09/02 01:16:49;;;;;;;2.25;2.00;;;;;;;16.88;48.29;101502.75;6182736;23;20214;-94
2022/09/02 01:19:25;;;;;;;2.97;1.92;;;;;;;16.80;48.38;101514.75;6183630;23;20092;-95
2022/09/02 01:21:55;;;;;;;2.22;2.00;;;;;;;16.87;48.25;101525.06;6181348;23;20063;-94
2022/09/02 01:24:24;;;;;;;2.58;1.80;;;;;;;16.81;49.65;101519.13;6184464;23;20135;-93
2022/09/02 01:26:57;;;;;;;2.17;1.98;;;;;;;16.90;48.75;101514.22;6184357;23;20716;-94
2022/09/02 01:29:23;;;;;;;;;;;;;;;17.14;46.13;101522.69;6211211;23;20008;-94
2022/09/02 01:31:49;;;;;;;4.72;2.63;;;;;;;16.79;48.80;101499.69;6181579;23;19939;-94
2022/09/02 01:34:14;;;;;;;4.20;2.25;;;;;;;16.77;48.98;101517.56;6184618;23;20004;-93
2022/09/02 01:36:41;;;;;;;2.53;1.88;;;;;;;16.52;50.12;101522.50;6183280;23;20008;-93
2022/09/02 01:39:08;;;;;;;3.42;2.10;;;;;;;16.50;50.00;101514.56;6184248;23;20491;-94
2022/09/02 01:41:34;;;;;;;2.08;1.92;;;;;;;16.48;50.06;101516.47;6209669;23;20302;-93
2022/09/02 01:44:00;;;;;;;4.30;1.98;;;;;;;16.47;50.04;101509.41;6183266;23;20000;-93
2022/09/02 01:46:25;;;;;;;4.13;2.50;;;;;;;16.38;49.66;101498.38;6183755;23;20031;-93
2022/09/02 01:48:51;;;;;;;3.85;2.17;;;;;;;16.41;50.63;101501.72;6185532;23;20015;-93
2022/09/02 01:51:19;;;;;;;3.63;2.00;;;;;;;16.33;50.74;101504.81;6184792;23;20087;-92
2022/09/02 01:53:45;;;;;;;3.35;2.20;;;;;;;16.29;50.67;101505.06;6183509;23;20001;-93
2022/09/02 01:56:10;;;;;;;3.08;2.17;;;;;;;16.25;50.81;101509.69;6183830;23;20031;-93
2022/09/02 01:58:35;;;;;;;2.65;2.05;;;;;;;16.15;51.16;101491.59;6184806;23;20008;-93
2022/09/02 02:01:02;;;;;;;2.42;2.25;;;;;;;16.05;50.52;101483.22;6184330;23;20017;-94
2022/09/02 02:03:27;;;;;;;4.10;2.38;;;;;;;16.11;50.36;101493.56;6184430;23;20456;-93
2022/09/02 02:05:54;;;;;;;2.22;2.05;;;;;;;16.16;50.76;101512.00;6182588;23;20000;-93
2022/09/02 02:08:20;;;;;;;4.10;2.22;;;;;;;16.11;51.27;101504.22;6183094;23;20016;-93
2022/09/02 02:10:49;;;;;;;2.80;2.38;;;;;;;16.05;51.35;101505.41;6184429;23;20001;-93
2022/09/02 02:13:14;;;;;;;3.83;2.40;;;;;;;15.95;51.73;101492.66;6185258;23;20036;-93
2022/09/02 02:15:42;;;;;;;3.60;2.45;;;;;;;16.09;51.42;101506.13;6186674;23;20007;-93
2022/09/02 02:18:08;;;;;;;3.70;2.22;;;;;;;16.02;52.05;101507.38;6186702;23;20004;-93
2022/09/02 02:20:34;;;;;;;2.50;2.22;;;;;;;16.00;51.40;101493.28;6185420;23;20008;-93
2022/09/02 02:22:59;;;;;;;2.38;2.15;;;;;;;15.86;51.66;101479.81;6184355;23;20057;-93
2022/09/02 02:25:24;;;;;;;3.03;2.30;;;;;;;15.95;51.86;101498.00;6212096;23;20455;-93
2022/09/02 02:27:50;;;;;;;3.75;2.08;;;;;;;15.84;51.32;101479.00;6185543;23;20066;-93
2022/09/02 02:30:16;;;;;;;7.45;2.20;;;;;;;15.91;51.95;101494.63;6184980;23;20004;-93
2022/09/02 02:32:44;;;;;;;3.00;2.25;;;;;;;16.00;51.39;101504.81;6184011;23;20099;-93
2022/09/02 02:35:10;;;;;;;2.92;2.10;;;;;;;15.98;52.12;101495.13;6183284;23;20001;-92
2022/09/02 02:37:35;;;;;;;2.63;2.38;;;;;;;15.90;51.80;101476.00;6184080;23;20487;-93
2022/09/02 02:40:02;;;;;;;3.90;2.30;;;;;;;15.89;51.99;101493.81;6183366;23;20036;-93
2022/09/02 02:42:27;;;;;;;5.28;2.78;;;;;;;15.85;52.63;101486.06;6183417;23;20005;-93
2022/09/02 02:44:53;;;;;;;4.82;2.63;;;;;;;15.84;52.40;101492.34;6184113;23;20074;-94
2022/09/02 02:47:19;;;;;;;3.85;2.47;;;;;;;15.90;52.09;101490.22;6185411;23;20000;-93
2022/09/02 02:49:44;;;;;;;2.95;2.50;;;;;;;15.91;52.18;101477.75;6212051;23;20062;-92
2022/09/02 02:52:11;;;;;;;3.08;2.25;;;;;;;15.89;52.21;101477.81;6184952;23;20325;-92
2022/09/02 02:54:37;;;;;;;4.82;2.58;;;;;;;15.90;52.29;101486.66;6182887;23;20009;-92
2022/09/02 02:57:04;;;;;;;4.53;2.60;;;;;;;15.86;51.91;101491.31;6183275;23;20395;-93
2022/09/02 02:59:30;;;;;;;4.05;2.42;;;;;;;15.93;51.87;101478.53;6183365;23;20163;-93
2022/09/02 03:01:55;;;;;;;3.38;2.40;;;;;;;15.92;51.77;101484.81;6184266;23;20088;-93
2022/09/02 03:04:21;;;;;;;3.38;2.42;;;;;;;15.91;51.85;101475.09;6184224;23;20044;-93
2022/09/02 03:06:46;;;;;;;4.25;2.72;;;;;;;15.90;51.69;101474.22;6184296;23;20036;-93
2022/09/02 03:09:12;;;;;;;2.85;2.40;;;;;;;15.82;52.21;101469.28;6184287;23;20071;-93
2022/09/02 03:11:38;;;;;;;3.08;2.13;;;;;;;15.77;52.37;101460.66;6211092;23;20000;-93
2022/09/02 03:14:04;;;;;;;4.53;2.53;;;;;;;15.93;51.54;101483.84;6209371;23;20564;-93
2022/09/02 03:16:29;;;;;;;5.22;2.58;;;;;;;15.74;52.85;101481.28;6211226;23;20179;-93
2022/09/02 03:18:54;;;;;;;3.55;2.60;;;;;;;15.69;53.04;101480.66;6185061;23;20039;-92
2022/09/02 03:21:20;;;;;;;4.68;2.58;;;;;;;15.52;53.20;101474.34;6184529;23;20004;-93
2022/09/02 03:23:46;;;;;;;3.95;2.50;;;;;;;15.58;53.35;101475.84;6182629;23;20015;-93
2022/09/02 03:26:17;;;;;;;3.92;3.05;;;;;;;15.64;52.77;101478.22;6182957;23;20013;-92
2022/09/02 03:28:42;;;;;;;5.13;2.70;;;;;;;15.64;53.10;101485.38;6182941;23;20036;-93
2022/09/02 03:31:14;;;;;;;3.28;2.45;;;;;;;15.66;52.52;101468.34;6169752;23;20331;-92
2022/09/02 03:33:39;;;;;;;2.90;2.53;;;;;;;15.74;52.50;101474.16;6179960;23;20005;-93
2022/09/02 03:36:05;;;;;;;2.58;2.38;;;;;;;15.63;52.39;101446.28;6154671;23;20251;-92
2022/09/02 03:38:30;;;;;;;3.28;2.45;;;;;;;15.73;52.99;101471.56;6154267;23;20390;-92
2022/09/02 03:40:55;;;;;;;2.75;2.50;;;;;;;15.73;51.94;101463.56;6153296;23;20009;-92
2022/09/02 03:43:20;;;;;;;2.40;2.20;;;;;;;15.78;52.60;101473.03;6153272;23;20437;-93
2022/09/02 03:45:46;;;;;;;3.22;2.60;;;;;;;15.71;52.25;101452.09;6153050;23;20095;-93
2022/09/02 03:48:12;;;;;;;3.40;2.63;;;;;;;15.78;52.04;101462.38;6154335;23;20778;-93
2022/09/02 03:50:41;;;;;;;4.75;2.78;;;;;;;15.63;53.00;101470.28;6154397;23;20444;-92
2022/09/02 03:53:07;;;;;;;3.08;2.75;;;;;;;15.65;52.91;101466.63;6152958;23;20461;-93
2022/09/02 03:55:34;;;;;;;4.40;2.47;;;;;;;15.60;52.11;101455.31;6153771;23;20243;-92
2022/09/02 03:57:59;;;;;;;7.82;2.72;;;;;;;15.60;53.05;101454.44;6153667;23;20441;-93
2022/09/02 04:00:30;;;;;;;6.07;2.67;;;;;;;15.62;53.17;101456.09;6153379;23;20108;-93
2022/09/02 04:02:57;;;;;;;3.20;2.55;;;;;;;15.68;52.58;101457.63;6179557;23;20032;-92
2022/09/02 04:05:23;;;;;;;5.70;2.60;;;;;;;15.66;52.32;101455.00;6154495;23;20015;-93
2022/09/02 04:07:51;;;;;;;3.40;2.80;;;;;;;15.67;53.01;101450.56;6153761;23;20421;-93
2022/09/02 04:10:17;;;;;;;5.20;2.70;;;;;;;15.54;53.81;101464.47;6153114;23;20011;-93
2022/09/02 04:12:43;;;;;;;2.90;2.60;;;;;;;15.49;53.98;101455.00;6151846;23;20421;-94
2022/09/02 04:15:10;;;;;;;2.60;2.28;;;;;;;15.57;53.08;101451.00;6153038;23;20005;-93
2022/09/02 04:17:37;;;;;;;3.65;2.67;;;;;;;15.60;53.59;101441.13;6154890;23;20035;-93
2022/09/02 04:20:04;;;;;;;4.70;2.60;;;;;;;15.58;53.26;101451.88;6154105;23;20463;-94
2022/09/02 04:22:30;;;;;;;4.20;2.72;;;;;;;15.48;54.34;101445.25;6179822;23;20160;-93
2022/09/02 04:24:55;;;;;;;4.45;2.70;;;;;;;15.46;54.12;101441.81;6152724;23;20507;-93
2022/09/02 04:27:21;;;;;;;2.42;2.30;;;;;;;15.47;53.98;101447.06;6180438;23;20015;-94
2022/09/02 04:29:46;;;;;;;6.93;2.92;;;;;;;15.44;53.88;101441.91;6152875;23;20036;-93
2022/09/02 04:32:11;;;;;;;4.15;2.40;;;;;;;15.55;53.03;101444.00;6176339;23;20028;-92
2022/09/02 04:34:37;;;;;;;5.22;2.78;;;;;;;15.50;54.12;101438.06;6182071;23;20095;-93
2022/09/02 04:37:02;;;;;;;3.60;2.95;;;;;;;15.47;53.92;101432.88;6184307;23;20012;-93
2022/09/02 04:39:27;;;;;;;4.38;2.90;;;;;;;15.43;54.09;101436.63;6184731;23;20367;-94
2022/09/02 04:41:53;;;;;;;3.63;2.90;;;;;;;15.32;55.04;101429.19;6182072;23;20013;-94
2022/09/02 04:44:18;;;;;;;5.25;2.85;;;;;;;15.32;55.10;101434.53;6182160;23;20004;-94
2022/09/02 04:46:43;;;;;;;3.38;2.53;;;;;;;15.41;54.84;101438.53;6180755;23;20067;-93
2022/09/02 04:49:09;;;;;;;6.22;2.75;;;;;;;15.48;54.65;101442.59;6184196;23;20059;-94
2022/09/02 04:51:34;;;;;;;4.80;2.67;;;;;;;15.49;55.15;101439.88;6184189;23;20460;-94
2022/09/02 04:54:00;;;;;;;4.00;3.05;;;;;;;15.55;54.68;101444.88;6183837;23;20012;-92
2022/09/02 04:56:28;;;;;;;5.63;3.08;;;;;;;15.50;55.14;101452.25;6183433;23;20012;-93
2022/09/02 04:58:54;;;;;;;4.75;2.90;;;;;;;15.50;55.07;101443.38;6209771;23;20008;-93
2022/09/02 05:01:25;;;;;;;3.55;2.72;;;;;;;15.54;54.41;101435.16;6182662;23;20329;-93
2022/09/02 05:03:50;;;;;;;3.78;2.60;;;;;;;15.68;54.95;101433.63;6181990;23;20227;-93
2022/09/02 05:06:20;;;;;;;4.25;2.75;;;;;;;15.74;53.99;101428.81;6184319;23;20077;-93
2022/09/02 05:08:47;;;;;;;4.38;3.10;;;;;;;15.80;54.49;101436.47;6184541;23;20008;-94
2022/09/02 05:11:27;;;;;;;3.22;2.60;;;;;;;15.97;53.41;101442.75;6181699;23;20009;-93
2022/09/02 05:13:53;;;;;;;5.88;2.55;;;;;;;15.91;54.38;101438.59;6181292;23;20253;-92
2022/09/02 05:16:23;;;;;;;3.90;3.10;;;;;;;15.85;54.44;101446.91;6181563;23;20098;-92
2022/09/02 05:18:51;;;;;;;5.25;2.92;;;;;;;15.84;54.54;101450.53;6182179;23;20008;-92
2022/09/02 05:21:17;;;;;;;6.80;2.83;;;;;;;15.86;53.99;101447.81;6184022;23;20469;-93
2022/09/02 05:23:43;;;;;;;3.63;3.00;;;;;;;15.94;55.07;101450.91;6182695;23;20055;-93
2022/09/02 05:26:11;;;;;;;4.63;3.03;;;;;;;15.90;54.61;101444.91;6208987;23;20007;-91
2022/09/02 05:28:38;;;;;;;5.25;3.05;;;;;;;15.89;55.97;101452.94;6182831;23;20015;-92
2022/09/02 05:31:05;;;;;;;7.90;2.92;;;;;;;15.90;55.00;101439.56;6208933;23;20075;-92
2022/09/02 05:33:39;;;;;;;4.03;2.60;;;;;;;15.94;55.17;101451.75;6210542;23;20004;-92
2022/09/02 05:36:08;;;;;;;5.72;2.90;;;;;;;15.91;55.25;101435.09;6208991;23;20036;-91
2022/09/02 05:38:34;;;;;;;5.20;3.47;;;;;;;15.96;55.87;101454.38;6181049;23;20012;-92
2022/09/02 05:41:06;;;;;;;4.15;2.90;;;;;;;15.92;55.94;101437.66;6184387;23;20001;-92
2022/09/02 05:43:36;;;;;;;5.65;3.00;;;;;;;15.94;55.80;101429.56;6180911;23;20451;-91
2022/09/02 05:46:07;;;;;;;5.45;3.38;;;;;;;16.04;56.09;101444.13;6182835;23;20067;-92
2022/09/02 05:51:21;;;;;;;6.65;3.00;;;;;;;16.04;56.01;101442.34;6212198;23;20019;-94
2022/09/02 05:53:46;;;;;;;4.68;3.17;;;;;;;16.10;56.41;101443.81;6184093;23;20352;-92
2022/09/02 05:56:13;;;;;;;5.22;2.70;;;;;;;16.09;55.59;101436.78;6211969;23;20000;-93
2022/09/02 05:58:38;;;;;;;2.55;2.35;;;;;;;16.16;55.70;101438.16;6184752;23;20010;-93
2022/09/02 06:01:09;;;;;;;5.03;2.80;;;;;;;16.27;54.94;101443.78;6182207;23;20008;-93
2022/09/02 06:03:35;;;;;;;4.55;2.60;;;;;;;16.40;54.66;101432.41;6185365;23;20497;-92
2022/09/02 06:06:00;;;;;;;3.78;2.65;;;;;;;16.39;55.14;101422.69;6181809;23;20000;-93
2022/09/02 06:08:25;;;;;;;7.32;3.10;;;;;;;16.58;53.54;101436.75;6185404;23;20383;-94
2022/09/02 06:10:51;;;;;;;4.38;2.78;;;;;;;16.66;53.26;101434.50;6185104;23;20066;-93
2022/09/02 06:13:20;;;;;;;4.63;2.90;;;;;;;16.69;53.04;101426.31;6184466;23;20135;-92
2022/09/02 06:15:45;;;;;;;4.38;2.80;;;;;;;16.70;52.67;101408.50;6210892;23;20015;-93
2022/09/02 06:18:11;;;;;;;6.95;3.58;;;;;;;16.94;53.35;101446.34;6184108;23;20000;-94
2022/09/02 06:20:41;;;;;;;8.02;3.13;;;;;;;16.86;54.54;101437.91;6186773;23;20011;-96
2022/09/02 06:23:06;;;;;;;4.75;3.08;;;;;;;16.80;54.61;101428.44;6187657;23;20004;-95
2022/09/02 06:25:38;;;;;;;6.28;2.90;;;;;;;16.95;54.09;101440.03;6184951;23;20008;-94
2022/09/02 06:28:04;;;;;;;7.07;3.20;;;;;;;16.97;53.65;101440.81;6187959;23;20004;-95
2022/09/02 06:30:30;;;;;;;5.65;3.10;;;;;;;16.98;52.77;101422.03;6187246;23;20009;-94
2022/09/02 06:32:55;;;;;;;8.25;3.42;;;;;;;16.96;52.70;101401.69;6188012;23;20063;-94
2022/09/02 06:36:03;;;;;;;4.75;3.40;;;;;;;17.22;52.14;101434.91;6164680;23;20340;-94
2022/09/02 06:38:28;;;;;;;8.52;3.88;;;;;;;17.08;52.99;101417.88;6190405;23;20058;-95
2022/09/02 06:40:54;;;;;;;10.68;3.40;;;;;;;17.25;52.73;101426.72;6190097;23;20009;-95
2022/09/02 06:43:20;;;;;;;6.30;3.35;;;;;;;17.31;52.07;101415.69;6189961;23;20004;-95
2022/09/02 06:45:45;;;;;;;9.57;3.97;;;;;;;17.40;52.34;101428.50;6191260;23;20004;-95
2022/09/02 06:48:12;;;;;;;8.85;3.60;;;;;;;17.38;52.20;101417.03;6191166;23;20096;-96
2022/09/02 06:50:40;;;;;;;10.45;3.60;;;;;;;17.48;51.06;101409.31;6191195;23;20322;-95
2022/09/02 06:53:06;;;;;;;7.88;4.28;;;;;;;17.57;50.60;101406.09;6190844;23;20000;-95
2022/09/02 06:55:35;;;;;;;11.50;4.53;;;;;;;17.84;50.70;101431.19;6191730;23;20428;-96
2022/09/02 06:58:00;;;;;;;8.93;5.13;;;;;;;17.85;50.59;101418.66;6191908;23;20421;-95
2022/09/02 07:00:26;;;;;;;7.22;4.78;;;;;;;17.96;49.70;101418.03;6189892;23;20083;-95
2022/09/02 07:05:08;;;;;;;19.33;5.93;;;;;;;18.05;50.38;101414.78;6188472;23;20094;-95
2022/09/02 07:05:37;;;;;;;13.10;5.38;;;;;;;18.04;49.59;101410.34;6214534;23;20017;-95
2022/09/02 07:08:02;;;;;;;12.93;5.55;;;;;;;18.14;49.44;101414.22;6188443;23;20012;-94
2022/09/02 07:10:27;;;;;;;16.55;5.72;;;;;;;18.14;49.78;101410.63;6214921;23;20059;-93
2022/09/02 07:12:53;;;;;;;15.52;5.88;;;;;;;18.18;49.00;101396.13;6188234;23;20083;-94
2022/09/02 07:15:19;;;;;;;12.38;6.05;;;;;;;18.46;48.72;101414.81;6188622;23;20004;-94
2022/09/02 07:17:45;;;;;;;10.05;5.95;;;;;;;18.44;49.08;101402.50;6188244;23;20091;-95
2022/09/02 07:20:10;;;;;;;21.45;7.22;;;;;;;18.54;48.29;101406.28;6188544;23;20032;-94
2022/09/02 07:22:37;;;;;;;17.75;6.97;;;;;;;18.67;47.91;101412.59;6187695;23;20503;-95
2022/09/02 07:25:03;;;;;;;13.93;6.97;;;;;;;18.68;48.00;101406.25;6186020;23;20004;-94
2022/09/02 07:27:29;;;;;;;15.68;7.55;;;;;;;18.79;47.59;101406.47;6191842;23;20005;-95
2022/09/02 07:29:55;;;;;;;12.10;7.30;;;;;;;18.89;47.71;101424.63;6187179;23;20013;-94
2022/09/02 07:32:20;;;;;;;17.10;7.95;;;;;;;18.93;48.68;101408.25;6187828;23;20360;-94
2022/09/02 07:34:46;;;;;;;14.25;7.38;;;;;;;18.94;48.56;101395.69;6188379;23;20013;-96
2022/09/02 07:37:11;;;;;;;14.70;7.88;;;;;;;19.10;47.67;101396.38;6183191;23;20050;-93
2022/09/02 07:39:37;;;;;;;23.60;9.15;;;;;;;19.14;46.55;101403.25;6183864;23;20013;-93
2022/09/02 07:42:03;;;;;;;14.10;8.27;;;;;;;19.21;47.55;101409.94;6185096;23;20008;-93
2022/09/02 07:44:30;;;;;;;17.17;8.15;;;;;;;19.39;47.45;101415.84;6211205;23;20368;-92
2022/09/02 07:46:56;;;;;;;20.88;9.85;;;;;;;19.44;46.68;101411.03;6209870;23;20141;-93
2022/09/02 07:49:21;;;;;;;19.83;9.52;;;;;;;19.55;46.93;101413.00;6183808;23;20008;-93
2022/09/02 07:51:48;;;;;;;24.02;10.02;;;;;;;19.58;46.38;101410.09;6183330;23;20005;-93
2022/09/02 07:54:15;;;;;;;19.63;10.10;;;;;;;19.58;47.15;101410.09;6211045;23;20004;-93
2022/09/02 07:56:41;;;;;;;19.27;9.55;;;;;;;19.62;47.10;101411.63;6183009;23;20063;-92
2022/09/02 07:59:06;;;;;;;21.65;10.65;;;;;;;19.62;46.97;101417.00;6209549;23;20421;-92
2022/09/02 08:01:33;;;;;;;21.92;10.80;;;;;;;19.67;47.36;101405.94;6182128;23;20013;-93
2022/09/02 08:03:58;;;;;;;19.10;10.52;;;;;;;19.79;46.89;101405.09;6182566;23;20036;-93
2022/09/02 08:06:26;;;;;;;22.50;11.80;;;;;;;19.84;47.15;101421.75;6183058;23;20360;-92
2022/09/02 08:08:52;;;;;;;23.65;11.82;;;;;;;19.87;47.03;101400.06;6182202;23;20031;-92
2022/09/02 08:11:18;;;;;;;24.02;11.93;;;;;;;20.09;45.61;101407.44;6182948;23;20047;-92
2022/09/02 08:13:44;;;;;;;26.08;13.02;;;;;;;20.21;47.09;101416.47;6183869;23;20009;-93
2022/09/02 08:16:10;;;;;;;25.20;12.60;;;;;;;20.28;46.55;101407.84;6184384;23;20008;-93
2022/09/02 08:18:35;;;;;;;27.00;13.88;;;;;;;20.47;45.83;101406.50;6184093;23;20008;-93
2022/09/02 08:21:01;;;;;;;24.77;12.98;;;;;;;20.63;45.88;101412.53;6210587;23;20004;-93
2022/09/02 08:23:26;;;;;;;24.33;12.80;;;;;;;20.69;46.01;101398.63;6184239;23;20345;-90
2022/09/02 08:25:52;;;;;;;26.20;12.70;;;;;;;20.77;44.55;101406.13;6184323;23;20008;-94
2022/09/02 08:28:17;;;;;;;22.58;11.95;;;;;;;20.91;44.59;101389.84;6184757;23;20008;-93
2022/09/02 08:30:43;;;;;;;20.80;11.27;;;;;;;21.10;44.85;101383.94;6185087;23;20019;-92
2022/09/02 08:33:08;;;;;;;21.15;10.50;;;;;;;21.29;44.11;101386.94;6210938;23;20036;-93
2022/09/02 08:35:33;;;;;;;27.13;9.88;;;;;;;21.38;43.77;101386.25;6183639;23;20593;-92
2022/09/02 08:37:59;;;;;;;19.27;10.20;;;;;;;21.51;44.47;101388.88;6183112;23;20310;-93
2022/09/02 08:40:33;;;;;;;19.27;9.38;;;;;;;21.62;43.82;101386.19;6183911;23;20008;-93
2022/09/02 08:43:00;;;;;;;16.98;7.85;;;;;;;21.82;43.24;101391.84;6210804;23;20332;-93
2022/09/02 08:45:38;;;;;;;15.88;8.20;;;;;;;22.03;43.26;101392.84;6185018;23;20043;-93
2022/09/02 08:48:21;;;;;;;16.65;7.93;;;;;;;22.09;42.96;101394.19;6183241;23;20009;-92
2022/09/02 08:50:51;;;;;;;11.55;6.88;;;;;;;22.14;42.90;101382.09;6184954;23;20411;-92
2022/09/02 08:53:31;;;;;;;12.50;7.15;;;;;;;22.22;43.72;101380.63;6182865;23;20070;-92
2022/09/02 08:55:58;;;;;;;13.60;7.13;;;;;;;22.22;42.92;101377.94;6181212;23;20000;-92
2022/09/02 08:58:27;;;;;;;19.48;6.53;;;;;;;22.42;42.77;101396.03;6183341;23;20038;-92
2022/09/02 09:01:31;;;;;;;11.18;6.25;;;;;;;22.67;42.60;101387.66;6208812;23;20012;-92
2022/09/02 09:04:09;;;;;;;23.67;6.70;;;;;;;22.71;43.46;101399.06;6180692;23;20092;-93
2022/09/02 09:06:37;;;;;;;11.18;6.10;;;;;;;22.78;43.23;101397.53;6181107;23;20421;-93
2022/09/02 09:09:13;;;;;;;13.48;5.78;;;;;;;22.97;42.59;101383.41;6182212;23;20044;-94
2022/09/02 09:12:01;;;;;;;11.40;6.75;;;;;;;23.16;42.02;101390.81;6182153;23;20016;-94
2022/09/02 09:15:18;;;;;;;14.05;7.60;;;;;;;23.30;41.65;101397.75;6159335;23;20441;-93
2022/09/02 09:18:16;;;;;;;16.00;9.05;;;;;;;23.40;41.24;101394.13;6095033;23;20093;-93
2022/09/02 09:20:43;;;;;;;22.15;9.95;;;;;;;23.41;40.95;101395.84;6186801;23;20008;-94
2022/09/02 09:23:23;;;;;;;23.65;9.43;;;;;;;23.50;41.67;101387.94;6183566;23;20146;-94
2022/09/02 09:25:54;;;;;;;18.70;9.77;;;;;;;23.57;41.16;101389.13;6182253;23;20036;-94
2022/09/02 09:28:19;;;;;;;18.40;9.60;;;;;;;23.67;41.32;101396.31;6183560;23;20016;-93
2022/09/02 09:30:45;;;;;;;17.65;11.25;;;;;;;23.75;39.48;101384.88;6211913;23;20281;-94
2022/09/02 09:33:15;;;;;;;18.50;11.30;;;;;;;23.85;39.89;101382.22;6187306;23;20058;-95
2022/09/02 09:35:47;;;;;;;25.85;11.82;;;;;;;23.98;39.27;101388.25;6185735;23;20016;-94
2022/09/02 09:38:12;;;;;;;21.88;11.93;;;;;;;24.13;40.06;101369.81;6185537;23;20044;-94
2022/09/02 09:40:40;;;;;;;24.17;13.73;;;;;;;24.32;39.18;101375.28;6213428;23;20008;-95
2022/09/02 09:43:05;;;;;;;26.38;15.43;;;;;;;24.41;38.03;101374.50;6189278;23;20487;-94
2022/09/02 09:45:33;;;;;;;33.72;15.15;;;;;;;24.47;38.51;101373.06;6185155;23;20004;-94
2022/09/02 09:48:17;;;;;;;29.73;14.57;;;;;;;24.79;38.65;101370.16;6184914;23;20013;-93
2022/09/02 09:51:07;;;;;;;24.10;14.20;;;;;;;24.89;38.04;101362.88;6185148;23;20107;-95
2022/09/02 09:53:34;;;;;;;32.00;15.43;;;;;;;25.09;36.52;101363.78;6170569;23;20388;-94
2022/09/02 09:56:12;;;;;;;28.67;14.27;;;;;;;25.44;37.37;101367.72;6185519;23;20443;-95
2022/09/02 09:58:40;;;;;;;32.63;15.18;;;;;;;25.67;36.02;101365.53;6185143;23;20372;-94
2022/09/02 10:01:34;;;;;;;27.02;15.18;;;;;;;25.86;35.91;101370.06;6183834;23;20020;-93
2022/09/02 10:04:07;;;;;;;30.92;14.35;;;;;;;26.11;35.43;101355.88;6184674;23;20009;-94
2022/09/02 10:06:32;;;;;;;28.42;15.00;;;;;;;26.48;34.35;101362.22;6183100;23;20087;-95
2022/09/02 10:09:05;;;;;;;24.65;12.60;;;;;;;26.90;34.08;101352.50;6184138;23;20071;-93
2022/09/02 10:11:33;;;;;;;20.38;12.73;;;;;;;27.33;33.23;101345.44;6183589;23;20038;-92
2022/09/02 10:14:01;;;;;;;17.92;10.20;;;;;;;27.86;31.81;101347.16;6184182;23;20064;-92
2022/09/02 10:16:43;;;;;;;14.82;9.93;;;;;;;28.04;31.81;101346.22;6180573;23;20008;-94
2022/09/02 10:19:25;;;;;;;24.05;10.73;;;;;;;28.08;31.64;101336.72;6207571;23;20000;-93
2022/09/02 10:22:26;;;;;;;16.35;9.65;;;;;;;28.45;32.21;101345.38;6182720;23;20393;-92
2022/09/02 10:25:23;;;;;;;17.13;10.93;;;;;;;28.49;31.97;101343.16;6119305;23;20261;-93
2022/09/02 10:28:06;;;;;;;16.55;8.85;;;;;;;29.20;30.54;101328.13;6182696;23;20235;-91
2022/09/02 10:30:51;;;;;;;19.23;8.57;;;;;;;29.94;29.80;101332.41;6181940;23;20101;-92
2022/09/02 10:33:33;;;;;;;12.15;5.03;;;;;;;30.45;27.33;101330.16;6162826;23;20040;-91
2022/09/02 10:36:19;;;;;;;6.80;3.65;;;;;;;31.02;27.78;101328.91;6210201;23;20004;-91
2022/09/02 10:38:49;;;;;;;8.38;3.60;;;;;;;31.38;26.42;101325.50;6210470;23;20005;-91
2022/09/02 10:41:44;;;;;;;6.03;3.28;;;;;;;31.35;26.39;101332.22;6209643;23;20008;-91
2022/09/02 10:44:28;;;;;;;7.47;3.17;;;;;;;31.44;24.85;101328.38;6211050;23;20139;-91
2022/09/02 10:47:09;;;;;;;7.35;3.30;;;;;;;31.20;25.07;101320.38;6210504;23;20005;-92
2022/09/02 10:49:40;;;;;;;7.18;3.90;;;;;;;31.04;24.91;101329.56;6211897;23;20077;-92
2022/09/02 10:52:08;;;;;;;12.70;5.47;;;;;;;31.15;25.03;101329.13;6183924;23;20351;-92
2022/09/02 10:54:43;;;;;;;13.68;6.32;;;;;;;31.54;24.81;101319.91;6182913;23;20065;-91
2022/09/02 10:57:18;;;;;;;9.55;5.57;;;;;;;31.58;24.83;101320.38;6183076;23;20009;-91
2022/09/02 11:00:04;;;;;;;10.90;5.72;;;;;;;31.46;25.21;101318.09;6210337;23;20012;-91
2022/09/02 11:02:34;;;;;;;11.60;6.80;;;;;;;31.70;24.46;101291.50;6182835;23;20019;-90
2022/09/02 11:05:06;;;;;;;7.85;5.63;;;;;;;32.01;23.68;101310.47;6183555;23;20011;-92
2022/09/02 11:08:02;;;;;;;9.52;5.15;;;;;;;31.81;23.58;101310.19;6209902;23;20004;-91
2022/09/02 11:10:36;;;;;;;9.35;6.20;;;;;;;31.92;23.69;101292.47;6209453;23;20007;-91
2022/09/02 11:13:25;;;;;;;6.95;4.22;;;;;;;31.78;23.01;101304.25;6210723;23;20080;-92
2022/09/02 11:16:05;;;;;;;9.65;3.17;;;;;;;31.63;23.54;101291.44;6182812;23;20411;-92
2022/09/02 11:18:46;;;;;;;5.70;3.08;;;;;;;31.96;24.00;101280.13;6209389;23;20003;-89
2022/09/02 11:21:30;;;;;;;;;;;;;;;32.31;22.64;101288.50;6185442;23;20001;-93
2022/09/02 11:24:05;;;;;;;5.57;2.80;;;;;;;31.71;22.90;101282.25;6184684;23;19944;-91
2022/09/02 11:27:08;;;;;;;5.88;3.10;;;;;;;31.33;23.82;101285.09;6209183;23;20496;-91
2022/09/02 11:29:45;;;;;;;7.15;3.08;;;;;;;31.09;23.09;101274.38;6182815;23;20408;-93
2022/09/02 11:32:19;;;;;;;6.18;3.20;;;;;;;31.19;23.51;101275.81;6183800;23;20070;-93
2022/09/02 11:34:49;;;;;;;9.88;4.63;;;;;;;31.77;22.78;101267.84;6183139;23;20005;-91